This is the latest recevied weather packets stored in our database for station/object AC0YE. If no packets are shown the sender has not sent any weather packets the latest 10 day(s).
| Time | Temp. | Humidity | Pressure | Rain* | Wind** | Luminosity | Snow |
|---|---|---|---|---|---|---|---|
| 1776998415 | 18.89° C | 98% | 1001.6 hPa | 6.86 mm | - | - | - |
| 1776998115 | 18.89° C | 98% | 1001.9 hPa | 10.41 mm | - | - | - |
| 1776993315 | 22.22° C | 81% | 1000.6 hPa | 0 mm | - | - | - |
| 1776992135 | 22.22° C | 84% | 1000.3 hPa | 0 mm | - | - | - |
| 1776991835 | 22.22° C | 85% | 1000.3 hPa | 0.51 mm | - | - | - |
| 1776991515 | 22.22° C | 84% | 1000.6 hPa | 0.76 mm | - | - | - |
| 1776990037 | 22.78° C | 78% | 1000.8 hPa | 0.76 mm | - | - | - |
| 1776987637 | 25.56° C | 66% | 1001.2 hPa | 0 mm | - | - | - |
| 1776987337 | 25.56° C | 66% | 1001.1 hPa | 0 mm | - | - | - |
| 1776986137 | 25.56° C | 66% | 1001.7 hPa | 0 mm | - | - | - |
| 1776984917 | 25.56° C | 66% | 1002.3 hPa | 0 mm | - | - | - |
| 1776984617 | 25.56° C | 66% | 1002.4 hPa | 0 mm | - | - | - |
| 1776983717 | 25.56° C | 66% | 1002.3 hPa | 0 mm | - | - | - |
| 1776982517 | 25.56° C | 67% | 1002.5 hPa | 0 mm | - | - | - |
| 1776980417 | 25.56° C | 65% | 1002.8 hPa | 0 mm | - | - | - |
| 1776979817 | 25.56° C | 66% | 1002.9 hPa | 0 mm | - | - | - |
| 1776978017 | 25.56° C | 64% | 1003.3 hPa | 0 mm | - | - | - |
| 1776976517 | 25.56° C | 64% | 1003.4 hPa | 0 mm | - | - | - |
| 1776973517 | 26.67° C | 61% | 1004.2 hPa | 0 mm | - | - | - |
| 1776971717 | 27.22° C | 60% | 1004.6 hPa | 0 mm | - | - | - |
| 1776971417 | 27.22° C | 60% | 1004.7 hPa | 0 mm | - | - | - |
| 1776969917 | 27.22° C | 62% | 1005.3 hPa | 0 mm | - | - | - |
| 1776967517 | 26.67° C | 62% | 1005.8 hPa | 0 mm | - | - | - |
| 1776966037 | 25.56° C | 63% | 1006.3 hPa | 0 mm | - | - | - |
| 1776964217 | 25° C | 66% | 1007.1 hPa | 0 mm | - | - | - |
* Rain latest hour (hover to see other rain measurements)
** Current wind speed in m/s (hover to see current wind gust speed)